sensor_id;sensor_type;location;lat;lon;timestamp;pressure;altitude;pressure_sealevel;temperature;humidity
550;BME280;20066;48.764;9.176;2022-11-04T00:01:22;97245.38;;;13.14;70.19
550;BME280;20066;48.764;9.176;2022-11-04T00:03:51;97248.97;;;12.59;72.32
550;BME280;20066;48.764;9.176;2022-11-04T00:06:19;97252.19;;;12.70;72.66
550;BME280;20066;48.764;9.176;2022-11-04T00:08:49;97243.28;;;13.06;70.57
550;BME280;20066;48.764;9.176;2022-11-04T00:11:17;97247.97;;;12.17;74.00
550;BME280;20066;48.764;9.176;2022-11-04T00:14:03;97240.59;;;13.06;71.07
550;BME280;20066;48.764;9.176;2022-11-04T00:16:32;97237.84;;;12.57;71.41
550;BME280;20066;48.764;9.176;2022-11-04T00:19:17;97238.97;;;13.08;70.69
550;BME280;20066;48.764;9.176;2022-11-04T00:21:46;97230.47;;;13.10;70.38
550;BME280;20066;48.764;9.176;2022-11-04T00:24:32;97240.31;;;13.33;68.69
550;BME280;20066;48.764;9.176;2022-11-04T00:27:18;97248.38;;;12.68;71.30
550;BME280;20066;48.764;9.176;2022-11-04T00:30:05;97242.88;;;13.07;69.51
550;BME280;20066;48.764;9.176;2022-11-04T00:32:35;97250.53;;;12.41;71.69
550;BME280;20066;48.764;9.176;2022-11-04T00:35:20;97244.91;;;13.20;69.71
550;BME280;20066;48.764;9.176;2022-11-04T00:37:48;97247.44;;;12.94;70.25
550;BME280;20066;48.764;9.176;2022-11-04T00:40:17;97251.66;;;12.43;72.34
550;BME280;20066;48.764;9.176;2022-11-04T00:42:45;97245.75;;;12.48;73.13
550;BME280;20066;48.764;9.176;2022-11-04T00:45:13;97242.38;;;12.96;70.64
550;BME280;20066;48.764;9.176;2022-11-04T00:47:40;97243.72;;;13.21;70.10
550;BME280;20066;48.764;9.176;2022-11-04T00:50:08;97253.47;;;12.66;70.78
550;BME280;20066;48.764;9.176;2022-11-04T00:52:36;97257.53;;;12.38;72.85
550;BME280;20066;48.764;9.176;2022-11-04T00:55:05;97256.47;;;12.68;71.04
550;BME280;20066;48.764;9.176;2022-11-04T00:57:34;97261.69;;;12.43;72.13
550;BME280;20066;48.764;9.176;2022-11-04T01:00:02;97262.56;;;12.72;71.62
550;BME280;20066;48.764;9.176;2022-11-04T01:02:30;97257.13;;;12.40;72.03
550;BME280;20066;48.764;9.176;2022-11-04T01:04:58;97259.50;;;12.54;71.97
550;BME280;20066;48.764;9.176;2022-11-04T01:07:26;97258.53;;;12.08;73.73
550;BME280;20066;48.764;9.176;2022-11-04T01:09:54;97260.59;;;12.56;71.99
550;BME280;20066;48.764;9.176;2022-11-04T01:12:21;97260.75;;;11.93;73.56
550;BME280;20066;48.764;9.176;2022-11-04T01:14:50;97268.56;;;12.27;72.96
550;BME280;20066;48.764;9.176;2022-11-04T01:17:18;97266.19;;;12.65;71.79
550;BME280;20066;48.764;9.176;2022-11-04T01:19:46;97280.31;;;12.53;71.38
550;BME280;20066;48.764;9.176;2022-11-04T01:22:13;97282.69;;;12.67;71.21
550;BME280;20066;48.764;9.176;2022-11-04T01:24:41;97285.06;;;13.01;69.95
550;BME280;20066;48.764;9.176;2022-11-04T01:27:09;97287.34;;;13.19;69.66
550;BME280;20066;48.764;9.176;2022-11-04T01:29:37;97289.19;;;14.12;66.36
550;BME280;20066;48.764;9.176;2022-11-04T01:32:06;97282.09;;;14.02;67.08
550;BME280;20066;48.764;9.176;2022-11-04T01:34:34;97281.44;;;14.40;65.59
550;BME280;20066;48.764;9.176;2022-11-04T01:37:09;97292.31;;;14.11;66.81
550;BME280;20066;48.764;9.176;2022-11-04T01:39:37;97284.28;;;13.78;68.12
550;BME280;20066;48.764;9.176;2022-11-04T01:42:04;97281.38;;;13.57;68.52
550;BME280;20066;48.764;9.176;2022-11-04T01:44:47;97279.06;;;13.42;69.55
550;BME280;20066;48.764;9.176;2022-11-04T01:47:18;97283.13;;;13.18;69.50
550;BME280;20066;48.764;9.176;2022-11-04T01:49:49;97282.72;;;12.84;71.24
550;BME280;20066;48.764;9.176;2022-11-04T01:52:21;97279.00;;;12.77;71.68
550;BME280;20066;48.764;9.176;2022-11-04T01:54:52;97277.06;;;12.26;73.42
550;BME280;20066;48.764;9.176;2022-11-04T01:57:25;97274.00;;;12.44;72.73
550;BME280;20066;48.764;9.176;2022-11-04T01:59:59;97270.91;;;12.06;73.69
550;BME280;20066;48.764;9.176;2022-11-04T02:02:29;97268.81;;;12.13;72.79
550;BME280;20066;48.764;9.176;2022-11-04T02:04:57;97279.78;;;12.78;71.09
550;BME280;20066;48.764;9.176;2022-11-04T02:07:25;97269.50;;;12.73;70.00
550;BME280;20066;48.764;9.176;2022-11-04T02:09:53;97260.63;;;13.82;66.45
550;BME280;20066;48.764;9.176;2022-11-04T02:12:21;97263.25;;;13.99;66.56
550;BME280;20066;48.764;9.176;2022-11-04T02:15:07;97270.88;;;14.04;66.41
550;BME280;20066;48.764;9.176;2022-11-04T02:17:59;97268.97;;;13.88;66.37
550;BME280;20066;48.764;9.176;2022-11-04T02:21:00;97267.03;;;14.30;65.20
550;BME280;20066;48.764;9.176;2022-11-04T02:26:54;97271.28;;;12.44;70.34
550;BME280;20066;48.764;9.176;2022-11-04T02:29:42;97259.09;;;12.19;70.11
550;BME280;20066;48.764;9.176;2022-11-04T02:32:17;97264.84;;;12.02;70.14
550;BME280;20066;48.764;9.176;2022-11-04T02:34:54;97261.22;;;12.80;67.55
550;BME280;20066;48.764;9.176;2022-11-04T02:37:33;97258.88;;;13.31;64.90
550;BME280;20066;48.764;9.176;2022-11-04T02:40:11;97255.88;;;13.12;64.75
550;BME280;20066;48.764;9.176;2022-11-04T02:42:49;97255.41;;;12.82;65.48
550;BME280;20066;48.764;9.176;2022-11-04T02:45:21;97260.56;;;13.25;64.98
550;BME280;20066;48.764;9.176;2022-11-04T02:47:55;97254.22;;;12.83;65.01
550;BME280;20066;48.764;9.176;2022-11-04T02:50:28;97256.63;;;13.13;64.18
550;BME280;20066;48.764;9.176;2022-11-04T02:53:04;97266.41;;;13.07;64.59
550;BME280;20066;48.764;9.176;2022-11-04T02:55:37;97261.81;;;12.71;65.29
550;BME280;20066;48.764;9.176;2022-11-04T02:58:11;97253.97;;;13.42;63.19
550;BME280;20066;48.764;9.176;2022-11-04T03:00:42;97262.66;;;14.07;62.18
550;BME280;20066;48.764;9.176;2022-11-04T03:03:14;97273.66;;;14.29;61.59
550;BME280;20066;48.764;9.176;2022-11-04T03:05:46;97266.69;;;14.15;61.50
550;BME280;20066;48.764;9.176;2022-11-04T03:08:18;97263.44;;;13.34;63.63
550;BME280;20066;48.764;9.176;2022-11-04T03:10:50;97257.44;;;13.42;64.26
550;BME280;20066;48.764;9.176;2022-11-04T03:13:21;97260.97;;;12.74;65.13
550;BME280;20066;48.764;9.176;2022-11-04T03:15:56;97258.38;;;13.36;62.19
550;BME280;20066;48.764;9.176;2022-11-04T03:18:31;97262.78;;;14.04;61.07
550;BME280;20066;48.764;9.176;2022-11-04T03:21:03;97284.91;;;14.27;60.00
550;BME280;20066;48.764;9.176;2022-11-04T03:23:33;97285.97;;;14.17;59.78
550;BME280;20066;48.764;9.176;2022-11-04T03:26:07;97286.38;;;13.58;61.50
550;BME280;20066;48.764;9.176;2022-11-04T03:28:41;97277.88;;;13.27;62.62
550;BME280;20066;48.764;9.176;2022-11-04T03:31:18;97273.50;;;13.17;62.95
550;BME280;20066;48.764;9.176;2022-11-04T03:33:50;97292.22;;;13.08;63.77
550;BME280;20066;48.764;9.176;2022-11-04T03:36:19;97300.16;;;12.63;65.19
550;BME280;20066;48.764;9.176;2022-11-04T03:38:48;97302.28;;;12.71;64.42
550;BME280;20066;48.764;9.176;2022-11-04T03:41:19;97302.59;;;13.58;61.92
550;BME280;20066;48.764;9.176;2022-11-04T03:43:51;97302.66;;;13.55;61.89
550;BME280;20066;48.764;9.176;2022-11-04T03:46:20;97318.47;;;13.40;63.03
550;BME280;20066;48.764;9.176;2022-11-04T03:48:50;97316.34;;;13.15;62.57
550;BME280;20066;48.764;9.176;2022-11-04T03:51:18;97322.00;;;13.37;62.08
550;BME280;20066;48.764;9.176;2022-11-04T03:53:46;97327.91;;;12.99;62.76
550;BME280;20066;48.764;9.176;2022-11-04T03:56:36;97327.91;;;13.32;61.95
550;BME280;20066;48.764;9.176;2022-11-04T03:59:22;97339.41;;;12.08;66.74
550;BME280;20066;48.764;9.176;2022-11-04T04:01:58;97331.72;;;11.40;68.79
550;BME280;20066;48.764;9.176;2022-11-04T04:04:32;97326.88;;;11.78;68.04
550;BME280;20066;48.764;9.176;2022-11-04T04:07:06;97329.25;;;11.96;67.11
550;BME280;20066;48.764;9.176;2022-11-04T04:09:41;97326.78;;;11.82;67.27
550;BME280;20066;48.764;9.176;2022-11-04T04:12:16;97327.94;;;12.04;66.03
550;BME280;20066;48.764;9.176;2022-11-04T04:14:48;97325.56;;;12.06;65.42
550;BME280;20066;48.764;9.176;2022-11-04T04:17:21;97327.53;;;12.25;65.67
550;BME280;20066;48.764;9.176;2022-11-04T04:19:53;97331.75;;;12.62;63.54
550;BME280;20066;48.764;9.176;2022-11-04T04:22:24;97326.13;;;12.57;62.87
550;BME280;20066;48.764;9.176;2022-11-04T04:24:56;97316.34;;;13.15;62.96
550;BME280;20066;48.764;9.176;2022-11-04T04:27:43;97312.34;;;12.87;65.46
550;BME280;20066;48.764;9.176;2022-11-04T04:30:14;97314.19;;;12.74;67.41
550;BME280;20066;48.764;9.176;2022-11-04T04:32:45;97326.50;;;13.27;65.48
550;BME280;20066;48.764;9.176;2022-11-04T04:35:14;97330.44;;;13.23;65.49
550;BME280;20066;48.764;9.176;2022-11-04T04:38:01;97346.13;;;11.77;67.56
550;BME280;20066;48.764;9.176;2022-11-04T04:40:46;97348.00;;;11.80;66.93
550;BME280;20066;48.764;9.176;2022-11-04T04:43:35;97358.53;;;12.53;63.76
550;BME280;20066;48.764;9.176;2022-11-04T04:46:22;97353.00;;;12.60;64.17
550;BME280;20066;48.764;9.176;2022-11-04T04:48:51;97344.09;;;12.99;62.66
550;BME280;20066;48.764;9.176;2022-11-04T04:51:20;97336.78;;;13.16;61.29
550;BME280;20066;48.764;9.176;2022-11-04T04:53:48;97330.88;;;13.05;62.44
550;BME280;20066;48.764;9.176;2022-11-04T04:56:15;97313.25;;;12.81;63.15
550;BME280;20066;48.764;9.176;2022-11-04T04:58:43;97297.59;;;12.92;65.44
550;BME280;20066;48.764;9.176;2022-11-04T05:01:11;97297.56;;;12.40;67.48
550;BME280;20066;48.764;9.176;2022-11-04T05:03:39;97296.84;;;12.55;68.25
550;BME280;20066;48.764;9.176;2022-11-04T05:06:12;97266.84;;;12.89;66.32
550;BME280;20066;48.764;9.176;2022-11-04T05:08:39;97253.66;;;13.24;65.10
550;BME280;20066;48.764;9.176;2022-11-04T05:11:07;97250.28;;;13.36;64.35
550;BME280;20066;48.764;9.176;2022-11-04T05:13:35;97245.16;;;12.93;65.07
550;BME280;20066;48.764;9.176;2022-11-04T05:16:04;97248.34;;;13.20;64.74
550;BME280;20066;48.764;9.176;2022-11-04T05:18:32;97247.41;;;13.43;63.88
550;BME280;20066;48.764;9.176;2022-11-04T05:21:02;97239.75;;;13.09;64.85
550;BME280;20066;48.764;9.176;2022-11-04T05:23:32;97249.72;;;13.12;64.50
550;BME280;20066;48.764;9.176;2022-11-04T05:26:00;97261.06;;;12.71;65.66
550;BME280;20066;48.764;9.176;2022-11-04T05:28:28;97268.34;;;12.54;66.42
550;BME280;20066;48.764;9.176;2022-11-04T05:30:57;97287.69;;;12.69;66.16
550;BME280;20066;48.764;9.176;2022-11-04T05:33:25;97272.72;;;13.00;64.12
550;BME280;20066;48.764;9.176;2022-11-04T05:35:53;97275.44;;;13.17;64.00
550;BME280;20066;48.764;9.176;2022-11-04T05:38:20;97281.59;;;13.01;64.29
550;BME280;20066;48.764;9.176;2022-11-04T05:40:49;97285.97;;;12.95;65.16
550;BME280;20066;48.764;9.176;2022-11-04T05:43:17;97289.19;;;12.90;66.03
550;BME280;20066;48.764;9.176;2022-11-04T05:45:45;97299.25;;;12.33;67.33
550;BME280;20066;48.764;9.176;2022-11-04T05:48:13;97295.91;;;12.82;66.57
550;BME280;20066;48.764;9.176;2022-11-04T05:50:41;97304.06;;;12.78;66.17
550;BME280;20066;48.764;9.176;2022-11-04T05:53:08;97298.38;;;13.25;64.65
550;BME280;20066;48.764;9.176;2022-11-04T05:55:36;97290.69;;;13.39;63.99
550;BME280;20066;48.764;9.176;2022-11-04T05:58:05;97281.66;;;13.46;63.07
550;BME280;20066;48.764;9.176;2022-11-04T06:00:34;97270.19;;;12.41;66.78
550;BME280;20066;48.764;9.176;2022-11-04T06:03:02;97275.00;;;11.94;68.41
550;BME280;20066;48.764;9.176;2022-11-04T06:05:30;97273.72;;;11.98;69.26
550;BME280;20066;48.764;9.176;2022-11-04T06:07:58;97273.59;;;12.25;67.51
550;BME280;20066;48.764;9.176;2022-11-04T06:10:25;97263.47;;;12.29;67.46
550;BME280;20066;48.764;9.176;2022-11-04T06:12:53;97272.13;;;12.41;66.66
550;BME280;20066;48.764;9.176;2022-11-04T06:15:22;97274.34;;;12.26;67.42
550;BME280;20066;48.764;9.176;2022-11-04T06:17:50;97284.59;;;11.95;67.03
550;BME280;20066;48.764;9.176;2022-11-04T06:20:18;97282.66;;;11.95;68.12
550;BME280;20066;48.764;9.176;2022-11-04T06:22:46;97288.50;;;12.50;65.92
550;BME280;20066;48.764;9.176;2022-11-04T06:25:13;97294.69;;;12.66;65.41
550;BME280;20066;48.764;9.176;2022-11-04T06:27:42;97313.53;;;12.50;66.34
550;BME280;20066;48.764;9.176;2022-11-04T06:30:10;97317.44;;;12.65;65.45
550;BME280;20066;48.764;9.176;2022-11-04T06:32:39;97316.19;;;12.70;64.71
550;BME280;20066;48.764;9.176;2022-11-04T06:35:08;97314.09;;;12.77;65.29
550;BME280;20066;48.764;9.176;2022-11-04T06:37:35;97317.84;;;13.00;63.90
550;BME280;20066;48.764;9.176;2022-11-04T06:40:05;97323.22;;;12.84;65.36
550;BME280;20066;48.764;9.176;2022-11-04T06:42:33;97333.13;;;13.06;64.51
550;BME280;20066;48.764;9.176;2022-11-04T06:45:01;97327.28;;;12.56;65.18
550;BME280;20066;48.764;9.176;2022-11-04T06:47:29;97329.16;;;12.59;65.12
550;BME280;20066;48.764;9.176;2022-11-04T06:49:58;97326.47;;;12.59;65.77
550;BME280;20066;48.764;9.176;2022-11-04T06:52:25;97330.91;;;12.49;65.41
550;BME280;20066;48.764;9.176;2022-11-04T06:54:53;97331.19;;;12.35;66.25
550;BME280;20066;48.764;9.176;2022-11-04T06:57:21;97330.59;;;11.84;68.03
550;BME280;20066;48.764;9.176;2022-11-04T06:59:49;97331.06;;;11.56;69.49
550;BME280;20066;48.764;9.176;2022-11-04T07:02:16;97310.09;;;11.44;69.58
550;BME280;20066;48.764;9.176;2022-11-04T07:04:44;97319.19;;;11.30;70.53
550;BME280;20066;48.764;9.176;2022-11-04T07:07:14;97323.19;;;11.69;68.93
550;BME280;20066;48.764;9.176;2022-11-04T07:09:41;97317.91;;;12.05;68.69
550;BME280;20066;48.764;9.176;2022-11-04T07:12:10;97322.13;;;11.39;69.91
550;BME280;20066;48.764;9.176;2022-11-04T07:14:37;97321.38;;;12.25;66.58
550;BME280;20066;48.764;9.176;2022-11-04T07:17:05;97306.47;;;11.77;68.07
550;BME280;20066;48.764;9.176;2022-11-04T07:19:33;97303.72;;;12.40;66.63
550;BME280;20066;48.764;9.176;2022-11-04T07:22:00;97286.75;;;12.95;65.00
550;BME280;20066;48.764;9.176;2022-11-04T07:24:30;97289.94;;;13.06;64.31
550;BME280;20066;48.764;9.176;2022-11-04T07:26:58;97294.25;;;13.04;64.28
550;BME280;20066;48.764;9.176;2022-11-04T07:29:27;97284.47;;;13.10;64.19
550;BME280;20066;48.764;9.176;2022-11-04T07:31:54;97294.00;;;13.14;63.81
550;BME280;20066;48.764;9.176;2022-11-04T07:34:22;97302.88;;;12.79;64.91
550;BME280;20066;48.764;9.176;2022-11-04T07:36:50;97294.84;;;13.44;63.03
550;BME280;20066;48.764;9.176;2022-11-04T07:39:18;97300.06;;;13.02;62.92
550;BME280;20066;48.764;9.176;2022-11-04T07:41:47;97294.66;;;13.35;62.42
550;BME280;20066;48.764;9.176;2022-11-04T07:44:15;97294.59;;;12.34;65.86
550;BME280;20066;48.764;9.176;2022-11-04T07:46:43;97300.06;;;12.50;65.19
550;BME280;20066;48.764;9.176;2022-11-04T07:49:10;97300.63;;;12.22;65.28
550;BME280;20066;48.764;9.176;2022-11-04T07:51:38;97293.91;;;11.90;66.77
550;BME280;20066;48.764;9.176;2022-11-04T07:54:06;97292.78;;;11.68;68.76
550;BME280;20066;48.764;9.176;2022-11-04T07:56:34;97281.25;;;11.44;69.74
550;BME280;20066;48.764;9.176;2022-11-04T07:59:05;97279.34;;;12.27;65.31
550;BME280;20066;48.764;9.176;2022-11-04T08:01:33;97262.31;;;12.66;64.54
550;BME280;20066;48.764;9.176;2022-11-04T08:04:01;97270.94;;;13.42;63.13
550;BME280;20066;48.764;9.176;2022-11-04T08:06:30;97272.84;;;13.58;62.75
550;BME280;20066;48.764;9.176;2022-11-04T08:08:58;97270.03;;;13.33;63.72
550;BME280;20066;48.764;9.176;2022-11-04T08:11:26;97268.03;;;13.66;62.40
550;BME280;20066;48.764;9.176;2022-11-04T08:13:55;97273.88;;;13.48;62.97
550;BME280;20066;48.764;9.176;2022-11-04T08:16:24;97272.25;;;13.96;61.86
550;BME280;20066;48.764;9.176;2022-11-04T08:18:59;97270.06;;;14.19;61.04
550;BME280;20066;48.764;9.176;2022-11-04T08:21:29;97264.16;;;14.37;59.87
550;BME280;20066;48.764;9.176;2022-11-04T08:23:57;97272.84;;;14.83;58.76
550;BME280;20066;48.764;9.176;2022-11-04T08:26:25;97278.47;;;14.09;60.09
550;BME280;20066;48.764;9.176;2022-11-04T08:28:53;97281.19;;;13.93;60.20
550;BME280;20066;48.764;9.176;2022-11-04T08:31:22;97278.59;;;14.18;59.12
550;BME280;20066;48.764;9.176;2022-11-04T08:33:52;97286.34;;;13.13;61.97
550;BME280;20066;48.764;9.176;2022-11-04T08:36:22;97284.81;;;12.76;62.45
550;BME280;20066;48.764;9.176;2022-11-04T08:38:51;97290.13;;;12.63;62.54
550;BME280;20066;48.764;9.176;2022-11-04T08:41:21;97283.91;;;12.11;64.27
550;BME280;20066;48.764;9.176;2022-11-04T08:43:49;97285.22;;;12.94;62.90
550;BME280;20066;48.764;9.176;2022-11-04T08:46:17;97288.31;;;12.41;62.73
550;BME280;20066;48.764;9.176;2022-11-04T08:48:45;97292.38;;;11.70;65.43
550;BME280;20066;48.764;9.176;2022-11-04T08:51:17;97287.34;;;12.83;62.13
550;BME280;20066;48.764;9.176;2022-11-04T08:53:45;97289.22;;;12.70;63.18
550;BME280;20066;48.764;9.176;2022-11-04T08:56:18;97296.94;;;12.32;63.09
550;BME280;20066;48.764;9.176;2022-11-04T08:58:46;97290.25;;;11.81;65.66
550;BME280;20066;48.764;9.176;2022-11-04T09:01:14;97299.03;;;11.38;66.89
550;BME280;20066;48.764;9.176;2022-11-04T09:03:42;97294.97;;;12.16;64.99
550;BME280;20066;48.764;9.176;2022-11-04T09:06:13;97301.94;;;12.14;64.89
550;BME280;20066;48.764;9.176;2022-11-04T09:08:42;97308.03;;;11.51;67.38
550;BME280;20066;48.764;9.176;2022-11-04T09:13:39;97312.16;;;12.22;64.42
550;BME280;20066;48.764;9.176;2022-11-04T09:16:09;97310.84;;;12.30;62.01
550;BME280;20066;48.764;9.176;2022-11-04T09:18:37;97320.47;;;12.51;63.49
550;BME280;20066;48.764;9.176;2022-11-04T09:21:06;97328.50;;;12.35;63.21
550;BME280;20066;48.764;9.176;2022-11-04T09:23:35;97328.66;;;12.44;62.95
550;BME280;20066;48.764;9.176;2022-11-04T09:26:08;97326.81;;;12.02;64.07
550;BME280;20066;48.764;9.176;2022-11-04T09:28:36;97330.38;;;12.74;62.34
550;BME280;20066;48.764;9.176;2022-11-04T09:31:05;97322.34;;;12.34;63.43
550;BME280;20066;48.764;9.176;2022-11-04T09:33:33;97321.78;;;12.23;63.91
550;BME280;20066;48.764;9.176;2022-11-04T09:36:01;97319.22;;;12.72;62.16
550;BME280;20066;48.764;9.176;2022-11-04T09:38:29;97318.28;;;13.31;59.38
550;BME280;20066;48.764;9.176;2022-11-04T09:40:58;97313.56;;;13.02;59.72
550;BME280;20066;48.764;9.176;2022-11-04T09:43:33;97314.09;;;12.22;61.52
550;BME280;20066;48.764;9.176;2022-11-04T09:46:03;97319.81;;;12.63;60.59
550;BME280;20066;48.764;9.176;2022-11-04T09:48:33;97318.78;;;12.57;60.73
550;BME280;20066;48.764;9.176;2022-11-04T09:51:04;97317.78;;;12.67;59.39
550;BME280;20066;48.764;9.176;2022-11-04T09:53:48;97313.81;;;12.36;60.41
550;BME280;20066;48.764;9.176;2022-11-04T09:56:20;97299.00;;;13.61;56.43
550;BME280;20066;48.764;9.176;2022-11-04T09:58:50;97298.13;;;13.51;56.84
550;BME280;20066;48.764;9.176;2022-11-04T10:01:24;97302.94;;;14.59;53.74
550;BME280;20066;48.764;9.176;2022-11-04T10:04:05;97295.66;;;14.56;54.00
550;BME280;20066;48.764;9.176;2022-11-04T10:06:43;97294.22;;;14.39;52.69
550;BME280;20066;48.764;9.176;2022-11-04T10:09:29;97301.13;;;15.54;50.89
550;BME280;20066;48.764;9.176;2022-11-04T10:12:26;97299.69;;;14.90;51.18
550;BME280;20066;48.764;9.176;2022-11-04T10:15:12;97293.69;;;14.03;52.97
550;BME280;20066;48.764;9.176;2022-11-04T10:17:57;97291.97;;;13.35;55.67
550;BME280;20066;48.764;9.176;2022-11-04T10:20:41;97290.44;;;13.79;54.73
550;BME280;20066;48.764;9.176;2022-11-04T10:23:20;97287.66;;;14.65;51.83
550;BME280;20066;48.764;9.176;2022-11-04T10:25:52;97289.69;;;13.01;55.68
550;BME280;20066;48.764;9.176;2022-11-04T10:28:29;97277.13;;;13.72;54.26
550;BME280;20066;48.764;9.176;2022-11-04T10:31:03;97282.16;;;14.15;52.68
550;BME280;20066;48.764;9.176;2022-11-04T10:33:33;97285.13;;;14.46;51.16
550;BME280;20066;48.764;9.176;2022-11-04T10:36:05;97278.88;;;14.99;49.90
550;BME280;20066;48.764;9.176;2022-11-04T10:38:37;97281.78;;;15.30;49.90
550;BME280;20066;48.764;9.176;2022-11-04T10:41:17;97276.63;;;15.11;50.39
550;BME280;20066;48.764;9.176;2022-11-04T10:43:49;97279.53;;;14.65;51.00
550;BME280;20066;48.764;9.176;2022-11-04T10:46:36;97274.53;;;14.39;51.86
550;BME280;20066;48.764;9.176;2022-11-04T10:49:22;97274.31;;;15.09;50.76
550;BME280;20066;48.764;9.176;2022-11-04T10:51:56;97278.41;;;15.39;50.33
550;BME280;20066;48.764;9.176;2022-11-04T10:54:25;97274.34;;;15.22;49.83
550;BME280;20066;48.764;9.176;2022-11-04T10:56:55;97281.72;;;14.16;53.23
550;BME280;20066;48.764;9.176;2022-11-04T10:59:25;97275.34;;;14.10;53.72
550;BME280;20066;48.764;9.176;2022-11-04T11:01:57;97272.28;;;13.79;54.40
550;BME280;20066;48.764;9.176;2022-11-04T11:04:28;97272.66;;;13.94;54.54
550;BME280;20066;48.764;9.176;2022-11-04T11:06:57;97270.22;;;14.41;52.81
550;BME280;20066;48.764;9.176;2022-11-04T11:09:28;97270.31;;;15.01;52.02
550;BME280;20066;48.764;9.176;2022-11-04T11:11:59;97267.78;;;14.31;53.12
550;BME280;20066;48.764;9.176;2022-11-04T11:14:33;97270.19;;;14.00;53.25
550;BME280;20066;48.764;9.176;2022-11-04T11:17:19;97272.41;;;14.05;53.40
550;BME280;20066;48.764;9.176;2022-11-04T11:19:52;97264.38;;;14.43;52.51
550;BME280;20066;48.764;9.176;2022-11-04T11:22:34;97271.19;;;13.77;53.79
550;BME280;20066;48.764;9.176;2022-11-04T11:25:16;97259.03;;;13.40;54.66
550;BME280;20066;48.764;9.176;2022-11-04T11:27:47;97258.41;;;13.20;54.84
550;BME280;20066;48.764;9.176;2022-11-04T11:30:20;97252.31;;;14.06;53.38
550;BME280;20066;48.764;9.176;2022-11-04T11:32:52;97258.06;;;14.84;50.84
550;BME280;20066;48.764;9.176;2022-11-04T11:35:24;97245.63;;;14.61;51.82
550;BME280;20066;48.764;9.176;2022-11-04T11:37:52;97246.53;;;15.43;50.43
550;BME280;20066;48.764;9.176;2022-11-04T11:40:24;97240.75;;;15.07;50.18
550;BME280;20066;48.764;9.176;2022-11-04T11:42:54;97241.91;;;14.17;52.79
550;BME280;20066;48.764;9.176;2022-11-04T11:45:23;97241.06;;;15.56;49.86
550;BME280;20066;48.764;9.176;2022-11-04T11:47:53;97236.03;;;16.10;48.99
550;BME280;20066;48.764;9.176;2022-11-04T11:50:23;97239.25;;;16.18;48.62
550;BME280;20066;48.764;9.176;2022-11-04T11:53:13;97238.91;;;17.18;46.68
550;BME280;20066;48.764;9.176;2022-11-04T11:55:55;97232.13;;;17.41;46.82
550;BME280;20066;48.764;9.176;2022-11-04T11:58:31;97237.69;;;16.30;47.02
550;BME280;20066;48.764;9.176;2022-11-04T12:01:25;97234.13;;;16.82;45.82
550;BME280;20066;48.764;9.176;2022-11-04T12:03:57;97241.13;;;16.61;46.93
550;BME280;20066;48.764;9.176;2022-11-04T12:06:53;97230.91;;;15.13;49.19
550;BME280;20066;48.764;9.176;2022-11-04T12:09:46;97234.84;;;15.90;47.28
550;BME280;20066;48.764;9.176;2022-11-04T12:12:34;97230.63;;;16.81;46.28
550;BME280;20066;48.764;9.176;2022-11-04T12:15:28;97235.00;;;16.79;46.40
550;BME280;20066;48.764;9.176;2022-11-04T12:18:07;97232.03;;;15.37;48.93
550;BME280;20066;48.764;9.176;2022-11-04T12:20:49;97237.16;;;15.57;47.90
550;BME280;20066;48.764;9.176;2022-11-04T12:23:23;97233.31;;;15.45;48.80
550;BME280;20066;48.764;9.176;2022-11-04T12:26:04;97235.34;;;16.19;48.15
550;BME280;20066;48.764;9.176;2022-11-04T12:28:50;97236.47;;;15.87;47.95
550;BME280;20066;48.764;9.176;2022-11-04T12:31:28;97239.75;;;16.04;47.28
550;BME280;20066;48.764;9.176;2022-11-04T12:34:05;97238.81;;;14.82;49.76
550;BME280;20066;48.764;9.176;2022-11-04T12:36:45;97244.16;;;16.10;47.69
550;BME280;20066;48.764;9.176;2022-11-04T12:39:36;97248.06;;;15.66;48.31
550;BME280;20066;48.764;9.176;2022-11-04T12:42:14;97246.91;;;15.54;49.04
550;BME280;20066;48.764;9.176;2022-11-04T12:44:54;97242.03;;;14.13;53.03
550;BME280;20066;48.764;9.176;2022-11-04T12:47:32;97248.66;;;15.61;49.23
550;BME280;20066;48.764;9.176;2022-11-04T12:50:26;97246.00;;;15.92;48.93
550;BME280;20066;48.764;9.176;2022-11-04T12:53:12;97250.34;;;16.64;47.68
550;BME280;20066;48.764;9.176;2022-11-04T12:55:49;97250.25;;;16.76;46.42
550;BME280;20066;48.764;9.176;2022-11-04T12:58:32;97256.34;;;16.28;48.06
550;BME280;20066;48.764;9.176;2022-11-04T13:01:07;97254.28;;;15.07;50.09
550;BME280;20066;48.764;9.176;2022-11-04T13:03:47;97253.53;;;14.93;51.39
550;BME280;20066;48.764;9.176;2022-11-04T13:06:21;97257.72;;;14.06;53.21
550;BME280;20066;48.764;9.176;2022-11-04T13:08:55;97256.28;;;14.68;51.93
550;BME280;20066;48.764;9.176;2022-11-04T13:11:28;97268.84;;;15.81;48.81
550;BME280;20066;48.764;9.176;2022-11-04T13:14:02;97267.91;;;16.19;48.25
550;BME280;20066;48.764;9.176;2022-11-04T13:16:34;97273.22;;;16.93;46.86
550;BME280;20066;48.764;9.176;2022-11-04T13:19:04;97265.19;;;15.75;49.08
550;BME280;20066;48.764;9.176;2022-11-04T13:21:36;97269.00;;;16.22;48.20
550;BME280;20066;48.764;9.176;2022-11-04T13:24:16;97261.88;;;16.77;46.52
550;BME280;20066;48.764;9.176;2022-11-04T13:26:48;97264.28;;;17.33;46.02
550;BME280;20066;48.764;9.176;2022-11-04T13:29:19;97262.81;;;16.08;47.84
550;BME280;20066;48.764;9.176;2022-11-04T13:31:52;97269.22;;;16.67;46.65
550;BME280;20066;48.764;9.176;2022-11-04T13:34:28;97263.78;;;16.67;47.02
550;BME280;20066;48.764;9.176;2022-11-04T13:37:07;97268.72;;;16.29;48.04
550;BME280;20066;48.764;9.176;2022-11-04T13:39:42;97271.97;;;16.14;48.49
550;BME280;20066;48.764;9.176;2022-11-04T13:45:45;97280.00;;;16.89;46.59
550;BME280;20066;48.764;9.176;2022-11-04T13:48:17;97282.38;;;16.47;47.38
550;BME280;20066;48.764;9.176;2022-11-04T13:50:54;97294.75;;;15.83;49.29
550;BME280;20066;48.764;9.176;2022-11-04T13:53:41;97303.03;;;14.56;55.02
550;BME280;20066;48.764;9.176;2022-11-04T13:56:26;97301.59;;;13.52;60.58
550;BME280;20066;48.764;9.176;2022-11-04T13:59:03;97312.94;;;14.46;59.66
550;BME280;20066;48.764;9.176;2022-11-04T14:01:33;97313.53;;;14.12;60.25